createdAt,value
2019-02-16T00:00:43.786Z,17.12
2019-02-16T00:03:22.926Z,18.33
2019-02-16T00:05:51.834Z,16.40
2019-02-16T00:08:20.285Z,17.73
2019-02-16T00:10:49.032Z,18.30
2019-02-16T00:13:29.633Z,17.98
2019-02-16T00:15:58.117Z,17.05
2019-02-16T00:21:21.310Z,17.53
2019-02-16T00:23:51.321Z,17.05
2019-02-16T00:26:20.090Z,17.52
2019-02-16T00:28:49.182Z,18.55
2019-02-16T00:31:17.657Z,19.17
2019-02-16T00:33:47.473Z,19.57
2019-02-16T00:36:16.366Z,20.12
2019-02-16T00:38:45.153Z,21.27
2019-02-16T00:41:13.985Z,20.55
2019-02-16T00:43:43.141Z,21.00
2019-02-16T00:46:11.617Z,20.47
2019-02-16T00:49:10.914Z,20.43
2019-02-16T00:51:39.699Z,20.43
2019-02-16T00:54:17.532Z,18.73
2019-02-16T00:56:47.212Z,19.75
2019-02-16T00:59:15.891Z,19.43
2019-02-16T01:01:44.886Z,19.75
2019-02-16T01:04:13.344Z,18.27
2019-02-16T01:06:43.278Z,18.07
2019-02-16T01:09:12.062Z,17.70
2019-02-16T01:11:40.542Z,17.50
2019-02-16T01:16:56.541Z,17.27
2019-02-16T01:19:31.382Z,18.27
2019-02-16T01:22:03.134Z,17.70
2019-02-16T01:24:31.822Z,17.47
2019-02-16T01:27:01.548Z,18.73
2019-02-16T01:29:30.439Z,19.17
2019-02-16T01:32:00.141Z,18.77
2019-02-16T01:34:29.112Z,17.67
2019-02-16T01:39:51.258Z,18.65
2019-02-16T01:42:19.843Z,17.83
2019-02-16T01:44:48.731Z,18.23
2019-02-16T01:47:17.213Z,18.37
2019-02-16T01:49:46.101Z,17.87
2019-02-16T01:52:14.895Z,18.07
2019-02-16T01:54:43.778Z,18.93
2019-02-16T01:57:13.383Z,19.13
2019-02-16T01:59:43.401Z,18.23
2019-02-16T02:02:12.194Z,18.30
2019-02-16T02:04:40.966Z,19.37
2019-02-16T02:07:09.884Z,18.54
2019-02-16T02:09:39.053Z,18.62
2019-02-16T02:12:08.457Z,20.40
2019-02-16T02:17:24.769Z,19.87
2019-02-16T02:19:53.559Z,19.63
2019-02-16T02:22:22.142Z,18.53
2019-02-16T02:24:51.029Z,19.57
2019-02-16T02:27:19.810Z,19.30
2019-02-16T02:29:48.602Z,19.30
2019-02-16T02:32:17.189Z,19.43
2019-02-16T02:34:46.069Z,19.73
2019-02-16T02:37:24.694Z,19.52
2019-02-16T02:39:53.277Z,20.70
2019-02-16T02:42:21.676Z,20.40
2019-02-16T02:44:50.655Z,21.07
2019-02-16T02:47:19.444Z,20.55
2019-02-16T02:49:48.446Z,20.77
2019-02-16T02:52:17.211Z,19.87
2019-02-16T02:54:46.009Z,20.43
2019-02-16T02:57:14.774Z,20.68
2019-02-16T02:59:44.390Z,21.53
2019-02-16T03:02:13.301Z,20.70
2019-02-16T03:04:41.963Z,21.33
2019-02-16T03:07:10.542Z,20.97
2019-02-16T03:09:39.322Z,21.07
2019-02-16T03:15:09.581Z,21.03
2019-02-16T03:17:38.451Z,20.87
2019-02-16T03:20:07.243Z,21.40
2019-02-16T03:22:54.287Z,20.13
2019-02-16T03:27:55.304Z,20.90
2019-02-16T03:33:25.343Z,21.70
2019-02-16T03:36:07.439Z,23.67
2019-02-16T03:38:46.408Z,22.87
2019-02-16T03:41:36.859Z,21.33
2019-02-16T03:44:05.957Z,21.77
2019-02-16T03:46:34.766Z,21.63
2019-02-16T03:49:03.534Z,22.13
2019-02-16T03:51:32.570Z,22.70
2019-02-16T03:54:01.847Z,21.53
2019-02-16T03:56:30.609Z,23.17
2019-02-16T03:59:00.520Z,23.80
2019-02-16T04:01:30.226Z,24.50
2019-02-16T04:03:59.144Z,23.93
2019-02-16T04:06:28.213Z,24.53
2019-02-16T04:08:57.098Z,24.10
2019-02-16T04:11:25.793Z,24.40
2019-02-16T04:13:55.141Z,25.25
2019-02-16T04:16:24.097Z,26.07
2019-02-16T04:18:52.858Z,25.77
2019-02-16T04:21:21.341Z,26.37
2019-02-16T04:23:50.229Z,26.90
2019-02-16T04:26:19.019Z,24.63
2019-02-16T04:28:57.022Z,26.55
2019-02-16T04:31:27.855Z,25.27
2019-02-16T04:34:43.457Z,26.27
2019-02-16T04:36:44.703Z,25.80
2019-02-16T04:39:13.366Z,26.37
2019-02-16T04:41:42.460Z,23.98
2019-02-16T04:44:11.237Z,24.97
2019-02-16T04:47:02.010Z,25.03
2019-02-16T04:49:30.955Z,25.30
2019-02-16T04:52:00.112Z,25.90
2019-02-16T04:54:29.122Z,25.68
2019-02-16T04:56:58.032Z,25.50
2019-02-16T04:59:26.802Z,25.50
2019-02-16T05:01:56.506Z,26.50
2019-02-16T05:04:25.092Z,26.25
2019-02-16T05:06:53.880Z,25.83
2019-02-16T05:09:23.939Z,26.17
2019-02-16T05:11:52.696Z,26.17
2019-02-16T05:14:21.258Z,26.90
2019-02-16T05:16:50.042Z,27.83
2019-02-16T05:19:30.909Z,27.07
2019-02-16T05:22:00.135Z,27.97
2019-02-16T05:24:28.794Z,28.20
2019-02-16T05:26:57.588Z,28.20
2019-02-16T05:29:26.061Z,27.67
2019-02-16T05:31:55.178Z,27.82
2019-02-16T05:34:30.007Z,28.00
2019-02-16T05:36:58.895Z,28.50
2019-02-16T05:40:16.526Z,27.93
2019-02-16T05:42:04.867Z,29.60
2019-02-16T05:44:33.933Z,29.82
2019-02-16T05:47:02.723Z,29.93
2019-02-16T05:49:31.516Z,31.47
2019-02-16T05:52:01.013Z,31.60
2019-02-16T05:54:29.989Z,31.33
2019-02-16T05:57:00.945Z,34.07
2019-02-16T05:59:29.530Z,34.80
2019-02-16T06:01:59.489Z,33.23
2019-02-16T06:04:28.117Z,32.65
2019-02-16T06:06:56.593Z,31.85
2019-02-16T06:09:25.486Z,35.20
2019-02-16T06:11:54.277Z,34.30
2019-02-16T06:14:52.474Z,35.33
2019-02-16T06:17:20.929Z,35.70
2019-02-16T06:19:58.730Z,38.43
2019-02-16T06:22:29.050Z,36.97
2019-02-16T06:24:57.758Z,35.00
2019-02-16T06:27:26.639Z,34.37
2019-02-16T06:29:55.971Z,33.50
2019-02-16T06:32:24.750Z,34.05
2019-02-16T06:34:55.465Z,34.43
2019-02-16T06:37:38.926Z,34.63
2019-02-16T06:40:07.883Z,35.10
2019-02-16T06:43:07.798Z,34.43
2019-02-16T06:45:36.577Z,33.80
2019-02-16T06:48:12.765Z,35.10
2019-02-16T06:50:41.650Z,34.20
2019-02-16T06:53:29.093Z,31.38
2019-02-16T06:56:00.625Z,31.90
2019-02-16T07:01:33.904Z,32.00
2019-02-16T07:04:33.305Z,34.13
2019-02-16T07:07:02.297Z,32.03
2019-02-16T07:09:31.403Z,34.33
2019-02-16T07:12:03.684Z,35.57
2019-02-16T07:14:32.370Z,35.05
2019-02-16T07:17:20.584Z,36.80
2019-02-16T07:19:51.255Z,36.57
2019-02-16T07:22:20.336Z,38.33
2019-02-16T07:24:49.266Z,39.83
2019-02-16T07:27:18.225Z,42.23
2019-02-16T07:29:47.927Z,41.50
2019-02-16T07:32:16.777Z,39.38
2019-02-16T07:34:51.965Z,39.43
2019-02-16T07:37:20.413Z,37.97
2019-02-16T07:39:56.567Z,35.30
2019-02-16T07:42:27.335Z,36.03
2019-02-16T07:45:00.919Z,37.45
2019-02-16T07:47:31.458Z,36.95
2019-02-16T07:50:10.960Z,35.40
2019-02-16T07:52:47.542Z,35.57
2019-02-16T07:55:23.515Z,35.50
2019-02-16T07:57:56.689Z,33.90
2019-02-16T08:03:23.230Z,31.65
2019-02-16T08:06:21.312Z,34.73
2019-02-16T08:08:55.205Z,37.85
2019-02-16T08:14:33.047Z,33.65
2019-02-16T08:17:32.439Z,33.97
2019-02-16T08:20:19.061Z,32.47
2019-02-16T08:22:52.781Z,35.35
2019-02-16T08:25:29.379Z,36.53
2019-02-16T08:30:44.389Z,33.08
2019-02-16T08:33:17.713Z,33.53
2019-02-16T08:35:48.333Z,33.33
2019-02-16T08:38:27.662Z,36.93
2019-02-16T08:41:01.546Z,34.13
2019-02-16T08:43:34.844Z,35.10
2019-02-16T08:46:05.271Z,33.13
2019-02-16T08:48:38.664Z,30.75
2019-02-16T08:51:08.981Z,27.97
2019-02-16T08:53:39.313Z,29.43
2019-02-16T08:56:09.522Z,30.17
2019-02-16T08:58:48.582Z,29.15
2019-02-16T09:01:43.068Z,30.50
2019-02-16T09:04:28.223Z,31.33
2019-02-16T09:07:10.630Z,29.27
2019-02-16T09:09:41.370Z,30.77
2019-02-16T09:12:17.468Z,32.13
2019-02-16T09:14:47.957Z,32.90
2019-02-16T09:20:44.194Z,32.95
2019-02-16T09:23:39.430Z,33.90
2019-02-16T09:26:21.614Z,30.93
2019-02-16T09:29:17.537Z,30.77
2019-02-16T09:31:54.232Z,29.07
2019-02-16T09:34:48.898Z,28.87
2019-02-16T09:37:21.988Z,28.83
2019-02-16T09:43:08.404Z,26.78
2019-02-16T09:46:05.078Z,27.02
2019-02-16T09:48:53.498Z,26.83
2019-02-16T09:51:40.309Z,24.73
2019-02-16T09:54:11.030Z,25.12
2019-02-16T09:59:56.636Z,24.35
2019-02-16T10:02:45.399Z,26.13
2019-02-16T10:05:38.090Z,28.20
2019-02-16T10:08:08.039Z,27.37
2019-02-16T10:10:44.949Z,27.00
2019-02-16T10:13:15.146Z,25.60
2019-02-16T10:16:02.294Z,25.50
2019-02-16T10:21:14.270Z,24.02
2019-02-16T10:23:51.001Z,26.30
2019-02-16T10:26:21.482Z,24.95
2019-02-16T10:28:51.903Z,25.30
2019-02-16T10:31:37.794Z,26.87
2019-02-16T10:34:14.284Z,26.00
2019-02-16T10:36:45.204Z,24.90
2019-02-16T10:39:21.662Z,25.30
2019-02-16T10:41:52.614Z,24.43
2019-02-16T10:44:32.035Z,24.80
2019-02-16T10:47:08.706Z,25.97
2019-02-16T10:49:56.178Z,24.63
2019-02-16T10:52:29.326Z,24.67
2019-02-16T10:55:05.579Z,25.57
2019-02-16T11:00:32.988Z,24.87
2019-02-16T11:06:04.836Z,26.25
2019-02-16T11:08:40.860Z,26.43
2019-02-16T11:11:15.509Z,27.10
2019-02-16T11:13:45.806Z,26.70
2019-02-16T11:16:23.229Z,25.70
2019-02-16T11:18:53.880Z,25.37
2019-02-16T11:24:22.088Z,23.75
2019-02-16T11:30:03.358Z,22.83
2019-02-16T11:33:01.724Z,22.27
2019-02-16T11:35:34.890Z,21.30
2019-02-16T11:38:36.475Z,19.90
2019-02-16T11:41:08.901Z,20.17
2019-02-16T11:43:43.047Z,20.15
2019-02-16T11:46:16.440Z,18.30
2019-02-16T11:48:52.077Z,19.02
2019-02-16T11:51:22.184Z,18.57
2019-02-16T11:54:01.851Z,20.10
2019-02-16T11:56:47.610Z,19.23
2019-02-16T11:59:20.997Z,18.67
2019-02-16T12:02:01.593Z,19.80
2019-02-16T12:04:37.727Z,18.65
2019-02-16T12:07:13.885Z,20.68
2019-02-16T12:09:46.673Z,20.83
2019-02-16T12:12:21.049Z,20.75
2019-02-16T12:14:51.370Z,19.90
2019-02-16T12:17:38.226Z,19.23
2019-02-16T12:20:33.131Z,20.68
2019-02-16T12:23:08.376Z,19.60
2019-02-16T12:25:44.101Z,19.02
2019-02-16T12:28:14.139Z,19.40
2019-02-16T12:31:08.360Z,18.80
2019-02-16T12:33:38.629Z,17.65
2019-02-16T12:36:08.929Z,18.65
2019-02-16T12:38:41.834Z,17.85
2019-02-16T12:41:11.831Z,18.33
2019-02-16T12:43:54.147Z,18.77
2019-02-16T12:46:24.292Z,19.53
2019-02-16T12:48:54.592Z,19.40
2019-02-16T12:51:24.916Z,19.00
2019-02-16T12:54:01.447Z,19.37
2019-02-16T12:56:32.042Z,18.70
2019-02-16T12:59:04.803Z,18.30
2019-02-16T13:01:35.037Z,19.02
2019-02-16T13:04:05.625Z,18.62
2019-02-16T13:06:51.188Z,17.65
2019-02-16T13:09:24.205Z,17.73
2019-02-16T13:12:06.723Z,16.93
2019-02-16T13:14:42.480Z,18.48
2019-02-16T13:17:22.030Z,18.93
2019-02-16T13:19:52.776Z,17.10
2019-02-16T13:22:29.115Z,17.00
2019-02-16T13:25:02.552Z,17.07
2019-02-16T13:27:38.351Z,18.45
2019-02-16T13:30:18.644Z,17.65
2019-02-16T13:33:08.291Z,17.32
2019-02-16T13:35:31.740Z,16.37
2019-02-16T13:38:11.100Z,17.27
2019-02-16T13:40:41.908Z,16.65
2019-02-16T13:43:28.546Z,15.63
2019-02-16T13:45:58.965Z,15.40
2019-02-16T13:48:41.781Z,16.40
2019-02-16T13:51:11.999Z,15.43
2019-02-16T13:53:42.515Z,16.25
2019-02-16T13:56:15.926Z,16.03
2019-02-16T13:58:52.707Z,15.00
2019-02-16T14:01:23.235Z,14.43
2019-02-16T14:04:02.868Z,14.90
2019-02-16T14:06:33.082Z,14.90
2019-02-16T14:09:11.467Z,15.90
2019-02-16T14:11:42.133Z,14.87
2019-02-16T14:14:15.102Z,16.03
2019-02-16T14:16:58.146Z,15.00
2019-02-16T14:19:27.126Z,14.85
2019-02-16T14:21:56.365Z,15.75
2019-02-16T14:24:43.438Z,15.83
2019-02-16T14:27:13.253Z,14.63
2019-02-16T14:29:42.426Z,13.70
2019-02-16T14:32:11.538Z,14.07
2019-02-16T14:34:41.043Z,13.83
2019-02-16T14:37:11.128Z,13.10
2019-02-16T14:39:39.857Z,11.43
2019-02-16T14:42:08.781Z,12.07
2019-02-16T14:44:37.804Z,10.88
2019-02-16T14:47:06.593Z,11.40
2019-02-16T14:49:35.813Z,11.93
2019-02-16T14:52:06.148Z,11.60
2019-02-16T14:54:36.251Z,11.18
2019-02-16T14:57:06.677Z,11.18
2019-02-16T14:59:35.566Z,9.65
2019-02-16T15:02:05.911Z,9.46
2019-02-16T15:04:35.292Z,10.40
2019-02-16T15:07:04.185Z,9.00
2019-02-16T15:09:32.952Z,8.83
2019-02-16T15:12:02.165Z,9.60
2019-02-16T15:14:31.358Z,9.78
2019-02-16T15:17:01.546Z,9.23
2019-02-16T15:19:30.570Z,10.08
2019-02-16T15:21:59.158Z,9.35
2019-02-16T15:24:28.055Z,9.53
2019-02-16T15:26:56.498Z,9.60
2019-02-16T15:29:25.233Z,9.70
2019-02-16T15:31:53.993Z,9.75
2019-02-16T15:34:22.446Z,10.67
2019-02-16T15:36:51.242Z,13.30
2019-02-16T15:39:19.718Z,11.00
2019-02-16T15:41:48.497Z,10.40
2019-02-16T15:44:16.987Z,11.83
2019-02-16T15:46:45.777Z,11.17
2019-02-16T15:49:14.257Z,11.07
2019-02-16T15:51:42.730Z,11.70
2019-02-16T15:54:11.147Z,12.97
2019-02-16T15:56:39.815Z,14.58
2019-02-16T15:59:09.623Z,14.23
2019-02-16T16:01:38.645Z,13.13
2019-02-16T16:04:07.388Z,12.73
2019-02-16T16:06:36.600Z,13.25
2019-02-16T16:09:23.097Z,12.22
2019-02-16T16:11:56.274Z,12.87
2019-02-16T16:14:43.391Z,12.90
2019-02-16T16:17:19.387Z,12.87
2019-02-16T16:19:55.933Z,11.50
2019-02-16T16:22:31.278Z,13.93
2019-02-16T16:25:07.503Z,13.45
2019-02-16T16:30:16.251Z,13.87
2019-02-16T16:33:03.064Z,15.55
2019-02-16T16:35:42.303Z,15.50
2019-02-16T16:38:34.418Z,14.65
2019-02-16T16:41:08.163Z,15.10
2019-02-16T16:43:47.679Z,16.07
2019-02-16T16:46:20.768Z,15.93
2019-02-16T16:49:07.866Z,16.07
2019-02-16T16:54:24.042Z,16.20
2019-02-16T16:56:57.123Z,17.32
2019-02-16T16:59:27.714Z,18.97
2019-02-16T17:02:06.739Z,22.37
2019-02-16T17:04:42.467Z,29.10
2019-02-16T17:09:51.648Z,38.95
2019-02-16T17:12:40.363Z,31.67
2019-02-16T17:15:13.476Z,30.52
2019-02-16T17:20:50.039Z,26.37
2019-02-16T17:23:24.611Z,24.30
2019-02-16T17:25:58.191Z,25.67
2019-02-16T17:28:45.217Z,26.70
2019-02-16T17:31:21.864Z,24.75
2019-02-16T17:33:52.831Z,24.12
2019-02-16T17:36:42.349Z,24.57
2019-02-16T17:39:15.896Z,24.50
2019-02-16T17:41:46.821Z,29.63
2019-02-16T17:44:18.999Z,33.90
2019-02-16T17:47:06.715Z,41.28
2019-02-16T17:49:40.044Z,41.35
2019-02-16T17:52:19.522Z,70.20
2019-02-16T17:55:05.284Z,39.50
2019-02-16T17:57:35.832Z,41.83
2019-02-16T18:00:09.630Z,96.92
2019-02-16T18:02:48.577Z,141.18
2019-02-16T18:05:37.086Z,94.93
2019-02-16T18:08:11.217Z,135.70
2019-02-16T18:10:41.477Z,90.53
2019-02-16T18:13:12.830Z,103.00
2019-02-16T18:15:53.053Z,76.17
2019-02-16T18:18:24.495Z,53.28
2019-02-16T18:20:55.159Z,36.60
2019-02-16T18:23:33.835Z,58.80
2019-02-16T18:26:07.056Z,50.77
2019-02-16T18:28:43.655Z,42.85
2019-02-16T18:31:17.223Z,52.63
2019-02-16T18:33:54.288Z,40.85
2019-02-16T18:36:27.096Z,39.53
2019-02-16T18:38:57.497Z,34.05
2019-02-16T18:41:30.711Z,29.60
2019-02-16T18:44:16.981Z,24.82
2019-02-16T18:46:53.017Z,25.63
2019-02-16T18:49:35.441Z,24.67
2019-02-16T18:52:10.415Z,26.84
2019-02-16T18:54:52.521Z,27.75
2019-02-16T18:57:28.182Z,25.03
2019-02-16T19:00:12.099Z,37.05
2019-02-16T19:02:48.089Z,63.53
2019-02-16T19:08:39.056Z,32.23
2019-02-16T19:11:23.432Z,36.00
2019-02-16T19:13:54.059Z,32.85
2019-02-16T19:16:35.163Z,31.70
2019-02-16T19:19:11.842Z,33.63
2019-02-16T19:21:44.113Z,24.77
2019-02-16T19:24:23.616Z,29.87
2019-02-16T19:27:16.467Z,28.25
2019-02-16T19:29:45.855Z,29.93
2019-02-16T19:32:18.819Z,26.48
2019-02-16T19:34:49.137Z,29.77
2019-02-16T19:37:22.319Z,41.87
2019-02-16T19:40:01.781Z,47.95
2019-02-16T19:42:36.310Z,38.85
2019-02-16T19:45:10.542Z,35.43
2019-02-16T19:51:26.004Z,35.57
2019-02-16T19:54:12.933Z,34.00
2019-02-16T19:56:46.394Z,33.63
2019-02-16T19:59:26.404Z,33.80
2019-02-16T20:01:57.829Z,31.82
2019-02-16T20:04:37.145Z,32.25
2019-02-16T20:07:27.063Z,38.54
2019-02-16T20:10:14.562Z,44.20
2019-02-16T20:12:51.535Z,72.72
2019-02-16T20:18:07.437Z,54.45
2019-02-16T20:20:47.272Z,47.53
2019-02-16T20:23:22.904Z,43.68
2019-02-16T20:25:54.012Z,44.08
2019-02-16T20:28:40.996Z,72.10
2019-02-16T20:31:24.844Z,37.07
2019-02-16T20:34:05.693Z,35.30
2019-02-16T20:36:45.533Z,35.73
2019-02-16T20:39:16.011Z,35.53
2019-02-16T20:41:55.514Z,36.33
2019-02-16T20:44:43.107Z,37.88
2019-02-16T20:47:26.059Z,41.60
2019-02-16T20:50:08.609Z,44.70
2019-02-16T20:52:55.256Z,44.10
2019-02-16T20:55:25.373Z,42.53
2019-02-16T20:58:06.881Z,44.27
2019-02-16T21:00:46.518Z,42.90
2019-02-16T21:03:26.269Z,40.90
2019-02-16T21:06:12.863Z,43.10
2019-02-16T21:08:51.976Z,43.23
2019-02-16T21:11:31.227Z,46.03
2019-02-16T21:14:19.568Z,47.00
2019-02-16T21:17:02.784Z,58.90
2019-02-16T21:19:51.242Z,53.07
2019-02-16T21:22:24.831Z,45.23
2019-02-16T21:25:04.381Z,56.40
2019-02-16T21:27:57.687Z,56.63
2019-02-16T21:30:27.663Z,61.37
2019-02-16T21:33:01.410Z,58.33
2019-02-16T21:35:43.337Z,60.05
2019-02-16T21:38:16.533Z,54.97
2019-02-16T21:40:49.732Z,51.77
2019-02-16T21:43:28.844Z,48.80
2019-02-16T21:46:15.677Z,45.95
2019-02-16T21:48:55.192Z,45.08
2019-02-16T21:51:40.774Z,46.97
2019-02-16T21:54:11.646Z,77.37
2019-02-16T21:56:51.412Z,97.60
2019-02-16T21:59:23.127Z,112.35
2019-02-16T22:01:56.413Z,86.45
2019-02-16T22:04:43.005Z,77.57
2019-02-16T22:07:26.249Z,47.78
2019-02-16T22:10:09.371Z,49.87
2019-02-16T22:12:55.441Z,52.07
2019-02-16T22:15:24.865Z,55.48
2019-02-16T22:17:53.766Z,49.60
2019-02-16T22:20:22.221Z,48.50
2019-02-16T22:22:50.995Z,53.92
2019-02-16T22:25:21.319Z,47.77
2019-02-16T22:27:49.904Z,49.40
2019-02-16T22:30:18.404Z,49.23
2019-02-16T22:32:47.177Z,54.33
2019-02-16T22:35:15.652Z,48.40
2019-02-16T22:37:44.563Z,41.00
2019-02-16T22:40:13.244Z,44.67
2019-02-16T22:42:42.013Z,58.50
2019-02-16T22:45:11.432Z,51.50
2019-02-16T22:47:40.212Z,65.40
2019-02-16T22:50:09.809Z,82.43
2019-02-16T22:52:38.609Z,78.03
2019-02-16T22:55:08.084Z,82.73
2019-02-16T22:57:36.887Z,66.03
2019-02-16T23:00:08.323Z,94.47
2019-02-16T23:02:38.665Z,92.17
2019-02-16T23:05:07.235Z,103.60
2019-02-16T23:07:36.024Z,90.60
2019-02-16T23:10:09.421Z,85.74
2019-02-16T23:12:38.843Z,74.67
2019-02-16T23:15:08.820Z,61.03
2019-02-16T23:17:37.743Z,62.83
2019-02-16T23:20:11.242Z,59.97
2019-02-16T23:22:40.131Z,51.63
2019-02-16T23:25:08.901Z,58.25
2019-02-16T23:27:37.502Z,48.13
2019-02-16T23:30:08.630Z,46.77
2019-02-16T23:32:37.512Z,48.00
2019-02-16T23:35:07.125Z,42.70
2019-02-16T23:37:36.130Z,42.47
2019-02-16T23:40:08.189Z,40.12
2019-02-16T23:42:36.966Z,40.73
2019-02-16T23:45:08.101Z,40.75
2019-02-16T23:47:36.889Z,42.07
2019-02-16T23:50:12.657Z,38.13
2019-02-16T23:52:41.730Z,36.65
2019-02-16T23:55:10.828Z,40.46
2019-02-16T23:57:39.628Z,35.27
